Terminal Aerodrome Forecast
Issued by NWS Duluth, MN

Home | Current Version | Previous Version | Text Only | Print | Product List | Glossary On
Versions: 1 2 3 4 5 6 7 8 9 10 11 12 13 14 15 16 17 18 19 20 21 22 23 24 25 26 27 28 29 30 31 32 33 34 35 36 37
000
FTUS43 KDLH 290300 AAC
TAFDLH
TAF AMD
KDLH 290306Z 2903/2924 05007KT P6SM VCSH SCT007 OVC018
      TEMPO 2903/2905 07010G18KT 4SM -RA OVC007
     FM290500 07012G20KT 6SM -RA BR SCT005 OVC011
      TEMPO 2905/2909 4SM -RA BR OVC005
     FM291500 07012KT P6SM BKN018
     FM292000 08009KT P6SM BKN025=

USA.gov is the U.S. government's official web portal to all federal, state and local government web resources and services.